createdAt,value
2017-07-17T00:02:49.182Z,-58
2017-07-17T00:12:49.167Z,-58
2017-07-17T00:22:49.239Z,-58
2017-07-17T00:32:49.188Z,-58
2017-07-17T00:42:49.180Z,-58
2017-07-17T00:52:49.178Z,-59
2017-07-17T01:02:49.282Z,-58
2017-07-17T01:12:49.168Z,-57
2017-07-17T01:22:49.286Z,-58
2017-07-17T01:32:49.330Z,-57
2017-07-17T01:42:49.184Z,-58
2017-07-17T01:52:49.289Z,-58
2017-07-17T02:02:49.172Z,-58
2017-07-17T02:12:49.211Z,-57
2017-07-17T02:22:49.186Z,-59
2017-07-17T02:32:49.163Z,-59
2017-07-17T02:42:50.202Z,-57
2017-07-17T02:52:49.505Z,-58
2017-07-17T03:02:49.195Z,-58
2017-07-17T03:12:49.189Z,-57
2017-07-17T03:22:49.240Z,-58
2017-07-17T03:32:49.294Z,-58
2017-07-17T03:42:49.254Z,-58
2017-07-17T03:52:49.206Z,-58
2017-07-17T04:02:49.202Z,-59
2017-07-17T04:12:49.232Z,-58
2017-07-17T04:22:49.186Z,-58
2017-07-17T04:32:50.281Z,-57
2017-07-17T04:42:49.205Z,-58
2017-07-17T04:52:49.192Z,-58
2017-07-17T05:02:49.193Z,-58
2017-07-17T05:12:49.199Z,-58
2017-07-17T05:22:49.307Z,-57
2017-07-17T05:32:49.228Z,-58
2017-07-17T05:42:49.200Z,-55
2017-07-17T05:52:49.189Z,-57
2017-07-17T06:02:49.206Z,-56
2017-07-17T06:12:49.353Z,-57
2017-07-17T06:22:49.189Z,-56
2017-07-17T06:32:49.206Z,-56
2017-07-17T06:42:49.205Z,-58
2017-07-17T06:52:49.193Z,-57
2017-07-17T07:02:49.578Z,-57
2017-07-17T07:12:49.280Z,-57
2017-07-17T07:22:49.263Z,-58
2017-07-17T07:32:49.266Z,-65
2017-07-17T07:42:49.309Z,-65
2017-07-17T07:52:49.222Z,-65
2017-07-17T08:02:49.307Z,-65
2017-07-17T08:12:49.405Z,-63
2017-07-17T08:22:49.217Z,-64
2017-07-17T08:32:49.236Z,-64
2017-07-17T08:42:49.236Z,-65
2017-07-17T08:52:49.269Z,-64
2017-07-17T09:02:49.252Z,-64
2017-07-17T09:12:49.276Z,-63
2017-07-17T09:22:49.268Z,-63
2017-07-17T09:32:49.362Z,-58
2017-07-17T09:42:49.319Z,-62
2017-07-17T09:52:49.269Z,-62
2017-07-17T10:02:49.265Z,-62
2017-07-17T10:12:49.274Z,-63
2017-07-17T10:22:49.287Z,-62
2017-07-17T10:32:49.300Z,-61
2017-07-17T10:42:49.290Z,-62
2017-07-17T10:52:49.280Z,-62
2017-07-17T11:02:49.287Z,-62
2017-07-17T11:12:49.361Z,-62
2017-07-17T11:22:49.280Z,-62
2017-07-17T11:32:49.019Z,-63
2017-07-17T11:42:49.316Z,-62
2017-07-17T12:02:49.191Z,-62
2017-07-17T12:12:49.279Z,-61
2017-07-17T12:22:49.441Z,-62
2017-07-17T12:32:49.228Z,-61
2017-07-17T12:42:49.207Z,-61
2017-07-17T12:52:49.260Z,-62
2017-07-17T13:02:49.264Z,-61
2017-07-17T13:12:49.279Z,-60
2017-07-17T13:22:49.244Z,-60
2017-07-17T13:32:49.273Z,-59
2017-07-17T13:42:49.307Z,-62
2017-07-17T13:52:49.350Z,-61
2017-07-17T14:02:49.302Z,-60
2017-07-17T14:12:49.286Z,-61
2017-07-17T14:22:49.308Z,-62
2017-07-17T14:32:49.330Z,-61
2017-07-17T14:42:51.701Z,-62
2017-07-17T14:52:49.546Z,-59
2017-07-17T15:02:49.283Z,-60
2017-07-17T15:12:49.260Z,-61
2017-07-17T15:22:49.314Z,-60
2017-07-17T15:32:49.340Z,-62
2017-07-17T15:42:49.318Z,-62
2017-07-17T15:52:49.344Z,-60
2017-07-17T16:02:49.362Z,-59
2017-07-17T16:12:49.357Z,-60
2017-07-17T16:22:49.269Z,-61
2017-07-17T16:32:49.468Z,-60
2017-07-17T16:42:51.360Z,-58
2017-07-17T16:52:49.336Z,-60
2017-07-17T17:02:49.350Z,-62
2017-07-17T17:12:49.406Z,-61
2017-07-17T17:22:49.819Z,-59
2017-07-17T17:32:50.223Z,-60
2017-07-17T17:42:49.332Z,-60
2017-07-17T17:52:49.276Z,-61
2017-07-17T18:02:49.489Z,-62
2017-07-17T18:12:49.367Z,-61
2017-07-17T18:22:49.388Z,-61
2017-07-17T18:32:50.407Z,-62
2017-07-17T18:42:49.291Z,-64
2017-07-17T18:52:49.331Z,-62
2017-07-17T19:02:49.362Z,-63
2017-07-17T19:12:49.343Z,-61
2017-07-17T19:22:49.391Z,-62
2017-07-17T19:32:49.482Z,-61
2017-07-17T19:42:49.401Z,-62
2017-07-17T19:52:49.346Z,-60
2017-07-17T20:02:49.372Z,-62
2017-07-17T20:12:49.406Z,-62
2017-07-17T20:22:49.372Z,-62
2017-07-17T20:32:49.336Z,-61
2017-07-17T20:42:49.537Z,-58
2017-07-17T20:52:49.572Z,-61
2017-07-17T21:02:49.487Z,-62
2017-07-17T21:12:49.374Z,-60
2017-07-17T21:22:49.770Z,-62
2017-07-17T21:32:49.371Z,-60
2017-07-17T21:42:49.301Z,-56
2017-07-17T21:52:49.751Z,-57
2017-07-17T22:02:49.425Z,-55
2017-07-17T22:12:49.316Z,-57
2017-07-17T22:22:49.287Z,-57
2017-07-17T22:32:49.297Z,-56
2017-07-17T22:42:49.346Z,-57
2017-07-17T22:52:49.583Z,-56
2017-07-17T23:02:49.295Z,-57
2017-07-17T23:12:49.385Z,-58
2017-07-17T23:22:49.330Z,-55
2017-07-17T23:32:49.338Z,-56
2017-07-17T23:42:49.542Z,-57
2017-07-17T23:52:49.250Z,-57
